sensor_id;sensor_type;location;lat;lon;timestamp;P1;durP1;ratioP1;P2;durP2;ratioP2
56455;SDS011;42354;53.218;6.564;2023-05-17T00:00:25;34.92;;;3.92;;
56455;SDS011;42354;53.218;6.564;2023-05-17T00:02:50;24.65;;;4.40;;
56455;SDS011;42354;53.218;6.564;2023-05-17T00:05:15;25.00;;;3.92;;
56455;SDS011;42354;53.218;6.564;2023-05-17T00:07:41;25.35;;;4.15;;
56455;SDS011;42354;53.218;6.564;2023-05-17T00:10:06;27.83;;;3.63;;
56455;SDS011;42354;53.218;6.564;2023-05-17T00:12:32;20.98;;;3.30;;
56455;SDS011;42354;53.218;6.564;2023-05-17T00:14:58;29.25;;;3.78;;
56455;SDS011;42354;53.218;6.564;2023-05-17T00:17:23;22.55;;;3.10;;
56455;SDS011;42354;53.218;6.564;2023-05-17T00:19:49;30.80;;;3.80;;
56455;SDS011;42354;53.218;6.564;2023-05-17T00:22:14;33.42;;;3.53;;
56455;SDS011;42354;53.218;6.564;2023-05-17T00:24:39;31.10;;;4.55;;
56455;SDS011;42354;53.218;6.564;2023-05-17T00:27:05;20.63;;;3.45;;
56455;SDS011;42354;53.218;6.564;2023-05-17T00:29:30;26.63;;;3.97;;
56455;SDS011;42354;53.218;6.564;2023-05-17T00:31:56;21.52;;;3.55;;
56455;SDS011;42354;53.218;6.564;2023-05-17T00:34:21;25.23;;;3.97;;
56455;SDS011;42354;53.218;6.564;2023-05-17T00:36:46;23.80;;;3.42;;
56455;SDS011;42354;53.218;6.564;2023-05-17T00:39:13;28.80;;;3.60;;
56455;SDS011;42354;53.218;6.564;2023-05-17T00:41:38;23.95;;;3.55;;
56455;SDS011;42354;53.218;6.564;2023-05-17T00:44:03;31.13;;;3.95;;
56455;SDS011;42354;53.218;6.564;2023-05-17T00:46:29;38.20;;;3.80;;
56455;SDS011;42354;53.218;6.564;2023-05-17T00:48:54;22.95;;;3.65;;
56455;SDS011;42354;53.218;6.564;2023-05-17T00:51:20;26.50;;;3.67;;
56455;SDS011;42354;53.218;6.564;2023-05-17T00:53:46;20.52;;;3.60;;
56455;SDS011;42354;53.218;6.564;2023-05-17T00:56:13;27.00;;;4.03;;
56455;SDS011;42354;53.218;6.564;2023-05-17T00:58:38;34.80;;;4.22;;
56455;SDS011;42354;53.218;6.564;2023-05-17T01:01:05;26.67;;;4.32;;
56455;SDS011;42354;53.218;6.564;2023-05-17T01:03:31;34.30;;;4.80;;
56455;SDS011;42354;53.218;6.564;2023-05-17T01:05:58;22.40;;;3.25;;
56455;SDS011;42354;53.218;6.564;2023-05-17T01:08:23;26.42;;;3.42;;
56455;SDS011;42354;53.218;6.564;2023-05-17T01:13:39;27.85;;;3.90;;
56455;SDS011;42354;53.218;6.564;2023-05-17T01:16:15;22.08;;;3.67;;
56455;SDS011;42354;53.218;6.564;2023-05-17T01:27:14;23.60;;;3.05;;
56455;SDS011;42354;53.218;6.564;2023-05-17T01:29:41;16.25;;;2.95;;
56455;SDS011;42354;53.218;6.564;2023-05-17T01:32:08;26.58;;;2.88;;
56455;SDS011;42354;53.218;6.564;2023-05-17T01:34:35;17.92;;;3.10;;
56455;SDS011;42354;53.218;6.564;2023-05-17T01:37:00;25.77;;;2.88;;
56455;SDS011;42354;53.218;6.564;2023-05-17T01:39:25;23.02;;;2.60;;
56455;SDS011;42354;53.218;6.564;2023-05-17T01:42:10;28.33;;;2.60;;
56455;SDS011;42354;53.218;6.564;2023-05-17T01:50:45;12.20;;;1.98;;
56455;SDS011;42354;53.218;6.564;2023-05-17T01:53:27;22.85;;;2.67;;
56455;SDS011;42354;53.218;6.564;2023-05-17T01:56:02;26.70;;;2.75;;
56455;SDS011;42354;53.218;6.564;2023-05-17T01:58:32;13.55;;;1.90;;
56455;SDS011;42354;53.218;6.564;2023-05-17T02:01:03;16.47;;;2.33;;
56455;SDS011;42354;53.218;6.564;2023-05-17T02:03:30;19.00;;;2.15;;
56455;SDS011;42354;53.218;6.564;2023-05-17T02:05:55;14.75;;;2.78;;
56455;SDS011;42354;53.218;6.564;2023-05-17T02:11:14;16.40;;;2.13;;
56455;SDS011;42354;53.218;6.564;2023-05-17T02:13:40;14.32;;;1.75;;
56455;SDS011;42354;53.218;6.564;2023-05-17T02:16:05;14.80;;;1.90;;
56455;SDS011;42354;53.218;6.564;2023-05-17T02:18:31;27.95;;;2.65;;
56455;SDS011;42354;53.218;6.564;2023-05-17T02:20:59;17.48;;;1.95;;
56455;SDS011;42354;53.218;6.564;2023-05-17T02:23:24;12.57;;;2.25;;
56455;SDS011;42354;53.218;6.564;2023-05-17T02:25:49;17.85;;;2.10;;
56455;SDS011;42354;53.218;6.564;2023-05-17T02:28:15;22.02;;;2.95;;
56455;SDS011;42354;53.218;6.564;2023-05-17T02:30:40;16.38;;;2.05;;
56455;SDS011;42354;53.218;6.564;2023-05-17T02:33:06;18.98;;;2.90;;
56455;SDS011;42354;53.218;6.564;2023-05-17T02:35:32;20.67;;;2.28;;
56455;SDS011;42354;53.218;6.564;2023-05-17T02:37:57;25.00;;;3.10;;
56455;SDS011;42354;53.218;6.564;2023-05-17T02:40:23;20.13;;;2.47;;
56455;SDS011;42354;53.218;6.564;2023-05-17T02:42:49;15.23;;;1.90;;
56455;SDS011;42354;53.218;6.564;2023-05-17T02:45:14;17.90;;;2.42;;
56455;SDS011;42354;53.218;6.564;2023-05-17T02:47:39;21.27;;;2.72;;
56455;SDS011;42354;53.218;6.564;2023-05-17T02:50:05;19.17;;;2.28;;
56455;SDS011;42354;53.218;6.564;2023-05-17T02:52:31;20.20;;;2.13;;
56455;SDS011;42354;53.218;6.564;2023-05-17T02:54:56;11.93;;;1.60;;
56455;SDS011;42354;53.218;6.564;2023-05-17T02:57:21;18.80;;;3.35;;
56455;SDS011;42354;53.218;6.564;2023-05-17T02:59:47;13.43;;;2.50;;
56455;SDS011;42354;53.218;6.564;2023-05-17T03:02:12;16.67;;;2.42;;
56455;SDS011;42354;53.218;6.564;2023-05-17T03:04:37;13.05;;;1.98;;
56455;SDS011;42354;53.218;6.564;2023-05-17T03:07:03;18.33;;;2.30;;
56455;SDS011;42354;53.218;6.564;2023-05-17T03:09:28;13.88;;;2.55;;
56455;SDS011;42354;53.218;6.564;2023-05-17T03:11:54;24.02;;;2.05;;
56455;SDS011;42354;53.218;6.564;2023-05-17T03:14:20;16.58;;;2.45;;
56455;SDS011;42354;53.218;6.564;2023-05-17T03:16:45;21.88;;;1.83;;
56455;SDS011;42354;53.218;6.564;2023-05-17T03:19:10;22.70;;;2.63;;
56455;SDS011;42354;53.218;6.564;2023-05-17T03:21:36;13.93;;;2.28;;
56455;SDS011;42354;53.218;6.564;2023-05-17T03:24:01;15.88;;;2.42;;
56455;SDS011;42354;53.218;6.564;2023-05-17T03:26:26;17.42;;;2.50;;
56455;SDS011;42354;53.218;6.564;2023-05-17T03:28:52;15.65;;;2.45;;
56455;SDS011;42354;53.218;6.564;2023-05-17T03:31:17;12.18;;;1.95;;
56455;SDS011;42354;53.218;6.564;2023-05-17T03:33:44;17.33;;;2.15;;
56455;SDS011;42354;53.218;6.564;2023-05-17T03:36:09;20.90;;;1.73;;
56455;SDS011;42354;53.218;6.564;2023-05-17T03:38:35;12.00;;;1.50;;
56455;SDS011;42354;53.218;6.564;2023-05-17T03:41:00;14.95;;;1.75;;
56455;SDS011;42354;53.218;6.564;2023-05-17T03:43:26;12.23;;;1.33;;
56455;SDS011;42354;53.218;6.564;2023-05-17T03:45:52;13.07;;;1.92;;
56455;SDS011;42354;53.218;6.564;2023-05-17T03:48:18;9.30;;;1.90;;
56455;SDS011;42354;53.218;6.564;2023-05-17T03:50:43;13.60;;;1.63;;
56455;SDS011;42354;53.218;6.564;2023-05-17T03:53:09;11.73;;;1.95;;
56455;SDS011;42354;53.218;6.564;2023-05-17T03:55:34;13.60;;;1.95;;
56455;SDS011;42354;53.218;6.564;2023-05-17T03:57:59;14.60;;;1.50;;
56455;SDS011;42354;53.218;6.564;2023-05-17T04:00:25;17.52;;;2.28;;
56455;SDS011;42354;53.218;6.564;2023-05-17T04:02:50;13.88;;;1.63;;
56455;SDS011;42354;53.218;6.564;2023-05-17T04:05:16;13.43;;;2.00;;
56455;SDS011;42354;53.218;6.564;2023-05-17T04:07:44;11.32;;;1.48;;
56455;SDS011;42354;53.218;6.564;2023-05-17T04:10:10;11.98;;;1.50;;
56455;SDS011;42354;53.218;6.564;2023-05-17T04:12:35;15.35;;;1.50;;
56455;SDS011;42354;53.218;6.564;2023-05-17T04:15:02;13.20;;;1.48;;
56455;SDS011;42354;53.218;6.564;2023-05-17T04:17:27;14.20;;;2.03;;
56455;SDS011;42354;53.218;6.564;2023-05-17T04:19:53;13.65;;;1.48;;
56455;SDS011;42354;53.218;6.564;2023-05-17T04:22:19;7.28;;;1.30;;
56455;SDS011;42354;53.218;6.564;2023-05-17T04:24:44;9.77;;;1.77;;
56455;SDS011;42354;53.218;6.564;2023-05-17T04:27:10;13.18;;;1.40;;
56455;SDS011;42354;53.218;6.564;2023-05-17T04:29:35;10.63;;;1.67;;
56455;SDS011;42354;53.218;6.564;2023-05-17T04:32:01;13.18;;;1.60;;
56455;SDS011;42354;53.218;6.564;2023-05-17T04:34:26;11.45;;;1.50;;
56455;SDS011;42354;53.218;6.564;2023-05-17T04:36:52;12.40;;;1.42;;
56455;SDS011;42354;53.218;6.564;2023-05-17T04:39:17;15.13;;;1.45;;
56455;SDS011;42354;53.218;6.564;2023-05-17T04:41:43;7.55;;;1.20;;
56455;SDS011;42354;53.218;6.564;2023-05-17T04:44:09;17.30;;;2.17;;
56455;SDS011;42354;53.218;6.564;2023-05-17T04:46:34;10.55;;;1.30;;
56455;SDS011;42354;53.218;6.564;2023-05-17T04:48:59;12.13;;;1.33;;
56455;SDS011;42354;53.218;6.564;2023-05-17T04:51:25;13.90;;;1.20;;
56455;SDS011;42354;53.218;6.564;2023-05-17T04:53:51;6.78;;;1.20;;
56455;SDS011;42354;53.218;6.564;2023-05-17T04:56:17;13.23;;;1.67;;
56455;SDS011;42354;53.218;6.564;2023-05-17T04:58:42;16.58;;;1.35;;
56455;SDS011;42354;53.218;6.564;2023-05-17T05:01:08;14.55;;;1.95;;
56455;SDS011;42354;53.218;6.564;2023-05-17T05:03:33;10.52;;;1.30;;
56455;SDS011;42354;53.218;6.564;2023-05-17T05:05:58;6.85;;;1.60;;
56455;SDS011;42354;53.218;6.564;2023-05-17T05:08:24;8.00;;;1.17;;
56455;SDS011;42354;53.218;6.564;2023-05-17T05:10:49;6.70;;;1.20;;
56455;SDS011;42354;53.218;6.564;2023-05-17T05:13:15;7.78;;;1.38;;
56455;SDS011;42354;53.218;6.564;2023-05-17T05:15:41;12.65;;;1.48;;
56455;SDS011;42354;53.218;6.564;2023-05-17T05:18:06;6.85;;;1.00;;
56455;SDS011;42354;53.218;6.564;2023-05-17T05:20:32;15.43;;;2.08;;
56455;SDS011;42354;53.218;6.564;2023-05-17T05:22:57;17.15;;;2.53;;
56455;SDS011;42354;53.218;6.564;2023-05-17T05:25:24;9.82;;;1.60;;
56455;SDS011;42354;53.218;6.564;2023-05-17T05:27:50;11.10;;;1.77;;
56455;SDS011;42354;53.218;6.564;2023-05-17T05:30:15;10.52;;;1.30;;
56455;SDS011;42354;53.218;6.564;2023-05-17T05:32:49;11.40;;;1.40;;
56455;SDS011;42354;53.218;6.564;2023-05-17T05:35:15;20.05;;;1.98;;
56455;SDS011;42354;53.218;6.564;2023-05-17T05:37:42;17.00;;;1.45;;
56455;SDS011;42354;53.218;6.564;2023-05-17T05:40:08;20.58;;;1.70;;
56455;SDS011;42354;53.218;6.564;2023-05-17T05:42:35;14.05;;;1.83;;
56455;SDS011;42354;53.218;6.564;2023-05-17T05:45:00;11.77;;;1.90;;
56455;SDS011;42354;53.218;6.564;2023-05-17T05:47:25;14.55;;;1.63;;
56455;SDS011;42354;53.218;6.564;2023-05-17T05:49:51;24.90;;;2.53;;
56455;SDS011;42354;53.218;6.564;2023-05-17T05:52:16;11.85;;;2.20;;
56455;SDS011;42354;53.218;6.564;2023-05-17T05:54:41;9.70;;;1.63;;
56455;SDS011;42354;53.218;6.564;2023-05-17T05:57:07;19.67;;;1.67;;
56455;SDS011;42354;53.218;6.564;2023-05-17T05:59:32;20.27;;;1.73;;
56455;SDS011;42354;53.218;6.564;2023-05-17T06:01:57;16.15;;;2.38;;
56455;SDS011;42354;53.218;6.564;2023-05-17T06:04:23;12.60;;;1.65;;
56455;SDS011;42354;53.218;6.564;2023-05-17T06:06:49;26.55;;;2.67;;
56455;SDS011;42354;53.218;6.564;2023-05-17T06:09:14;14.43;;;2.08;;
56455;SDS011;42354;53.218;6.564;2023-05-17T06:11:40;16.33;;;2.35;;
56455;SDS011;42354;53.218;6.564;2023-05-17T06:14:06;16.48;;;3.13;;
56455;SDS011;42354;53.218;6.564;2023-05-17T06:16:32;15.88;;;2.10;;
56455;SDS011;42354;53.218;6.564;2023-05-17T06:18:58;16.70;;;1.70;;
56455;SDS011;42354;53.218;6.564;2023-05-17T06:21:23;15.68;;;2.22;;
56455;SDS011;42354;53.218;6.564;2023-05-17T06:23:49;21.85;;;2.42;;
56455;SDS011;42354;53.218;6.564;2023-05-17T06:26:14;17.50;;;2.55;;
56455;SDS011;42354;53.218;6.564;2023-05-17T06:28:40;13.50;;;2.17;;
56455;SDS011;42354;53.218;6.564;2023-05-17T06:31:05;21.48;;;2.58;;
56455;SDS011;42354;53.218;6.564;2023-05-17T06:33:30;16.05;;;3.10;;
56455;SDS011;42354;53.218;6.564;2023-05-17T06:35:56;22.63;;;3.28;;
56455;SDS011;42354;53.218;6.564;2023-05-17T06:38:21;22.60;;;2.92;;
56455;SDS011;42354;53.218;6.564;2023-05-17T06:40:50;13.13;;;2.47;;
56455;SDS011;42354;53.218;6.564;2023-05-17T06:43:19;16.73;;;1.98;;
56455;SDS011;42354;53.218;6.564;2023-05-17T06:45:44;14.50;;;2.10;;
56455;SDS011;42354;53.218;6.564;2023-05-17T06:48:09;18.23;;;2.92;;
56455;SDS011;42354;53.218;6.564;2023-05-17T06:50:35;13.70;;;2.05;;
56455;SDS011;42354;53.218;6.564;2023-05-17T06:53:00;17.20;;;2.40;;
56455;SDS011;42354;53.218;6.564;2023-05-17T06:55:26;18.25;;;1.98;;
56455;SDS011;42354;53.218;6.564;2023-05-17T06:57:52;21.38;;;2.35;;
56455;SDS011;42354;53.218;6.564;2023-05-17T07:00:18;19.20;;;2.78;;
56455;SDS011;42354;53.218;6.564;2023-05-17T07:02:45;18.30;;;2.63;;
56455;SDS011;42354;53.218;6.564;2023-05-17T07:05:10;24.83;;;2.47;;
56455;SDS011;42354;53.218;6.564;2023-05-17T07:07:36;18.73;;;2.47;;
56455;SDS011;42354;53.218;6.564;2023-05-17T07:10:01;18.17;;;2.42;;
56455;SDS011;42354;53.218;6.564;2023-05-17T07:12:27;10.50;;;2.00;;
56455;SDS011;42354;53.218;6.564;2023-05-17T07:14:53;17.77;;;1.98;;
56455;SDS011;42354;53.218;6.564;2023-05-17T07:17:18;18.08;;;2.10;;
56455;SDS011;42354;53.218;6.564;2023-05-17T07:19:43;17.00;;;2.20;;
56455;SDS011;42354;53.218;6.564;2023-05-17T07:22:09;20.13;;;2.88;;
56455;SDS011;42354;53.218;6.564;2023-05-17T07:24:35;17.45;;;2.55;;
56455;SDS011;42354;53.218;6.564;2023-05-17T07:27:00;20.67;;;2.67;;
56455;SDS011;42354;53.218;6.564;2023-05-17T07:29:26;19.05;;;3.05;;
56455;SDS011;42354;53.218;6.564;2023-05-17T07:31:51;18.52;;;2.78;;
56455;SDS011;42354;53.218;6.564;2023-05-17T07:34:16;16.00;;;1.92;;
56455;SDS011;42354;53.218;6.564;2023-05-17T07:36:42;15.88;;;2.10;;
56455;SDS011;42354;53.218;6.564;2023-05-17T07:39:07;12.93;;;1.90;;
56455;SDS011;42354;53.218;6.564;2023-05-17T07:41:34;16.38;;;2.05;;
56455;SDS011;42354;53.218;6.564;2023-05-17T07:44:00;14.65;;;2.55;;
56455;SDS011;42354;53.218;6.564;2023-05-17T07:46:25;20.52;;;2.17;;
56455;SDS011;42354;53.218;6.564;2023-05-17T07:48:51;12.57;;;1.67;;
56455;SDS011;42354;53.218;6.564;2023-05-17T07:51:16;11.95;;;1.90;;
56455;SDS011;42354;53.218;6.564;2023-05-17T07:53:42;12.45;;;1.90;;
56455;SDS011;42354;53.218;6.564;2023-05-17T07:56:07;17.25;;;1.75;;
56455;SDS011;42354;53.218;6.564;2023-05-17T07:58:32;16.45;;;1.90;;
56455;SDS011;42354;53.218;6.564;2023-05-17T08:00:58;17.98;;;2.47;;
56455;SDS011;42354;53.218;6.564;2023-05-17T08:03:24;18.77;;;2.08;;
56455;SDS011;42354;53.218;6.564;2023-05-17T08:05:49;15.00;;;1.95;;
56455;SDS011;42354;53.218;6.564;2023-05-17T08:08:14;12.55;;;2.55;;
56455;SDS011;42354;53.218;6.564;2023-05-17T08:10:40;11.40;;;1.85;;
56455;SDS011;42354;53.218;6.564;2023-05-17T08:13:07;17.33;;;2.67;;
56455;SDS011;42354;53.218;6.564;2023-05-17T08:15:33;19.23;;;3.35;;
56455;SDS011;42354;53.218;6.564;2023-05-17T08:17:58;14.95;;;2.95;;
56455;SDS011;42354;53.218;6.564;2023-05-17T08:20:23;9.18;;;1.40;;
56455;SDS011;42354;53.218;6.564;2023-05-17T08:22:49;11.10;;;1.20;;
56455;SDS011;42354;53.218;6.564;2023-05-17T08:25:14;9.82;;;1.88;;
56455;SDS011;42354;53.218;6.564;2023-05-17T08:27:40;8.90;;;1.30;;
56455;SDS011;42354;53.218;6.564;2023-05-17T08:30:05;10.00;;;1.63;;
56455;SDS011;42354;53.218;6.564;2023-05-17T08:32:32;12.68;;;1.70;;
56455;SDS011;42354;53.218;6.564;2023-05-17T08:34:57;10.98;;;1.63;;
56455;SDS011;42354;53.218;6.564;2023-05-17T08:37:22;17.48;;;2.00;;
56455;SDS011;42354;53.218;6.564;2023-05-17T08:39:48;11.48;;;1.35;;
56455;SDS011;42354;53.218;6.564;2023-05-17T08:42:16;12.82;;;1.60;;
56455;SDS011;42354;53.218;6.564;2023-05-17T08:44:46;8.45;;;1.52;;
56455;SDS011;42354;53.218;6.564;2023-05-17T08:47:11;8.13;;;1.30;;
56455;SDS011;42354;53.218;6.564;2023-05-17T08:49:54;10.15;;;1.60;;
56455;SDS011;42354;53.218;6.564;2023-05-17T08:52:21;7.45;;;1.30;;
56455;SDS011;42354;53.218;6.564;2023-05-17T08:54:47;10.32;;;1.40;;
56455;SDS011;42354;53.218;6.564;2023-05-17T08:57:12;13.02;;;1.77;;
56455;SDS011;42354;53.218;6.564;2023-05-17T08:59:40;8.90;;;2.00;;
56455;SDS011;42354;53.218;6.564;2023-05-17T09:02:06;9.02;;;1.50;;
56455;SDS011;42354;53.218;6.564;2023-05-17T09:04:32;11.05;;;1.48;;
56455;SDS011;42354;53.218;6.564;2023-05-17T09:06:58;12.30;;;1.90;;
56455;SDS011;42354;53.218;6.564;2023-05-17T09:09:25;9.55;;;1.67;;
56455;SDS011;42354;53.218;6.564;2023-05-17T09:11:51;7.72;;;1.45;;
56455;SDS011;42354;53.218;6.564;2023-05-17T09:14:16;9.70;;;1.70;;
56455;SDS011;42354;53.218;6.564;2023-05-17T09:16:42;13.98;;;1.52;;
56455;SDS011;42354;53.218;6.564;2023-05-17T09:19:08;10.57;;;1.83;;
56455;SDS011;42354;53.218;6.564;2023-05-17T09:21:43;10.18;;;1.45;;
56455;SDS011;42354;53.218;6.564;2023-05-17T09:24:10;9.40;;;1.67;;
56455;SDS011;42354;53.218;6.564;2023-05-17T09:29:11;14.05;;;1.70;;
56455;SDS011;42354;53.218;6.564;2023-05-17T09:31:38;6.13;;;1.38;;
56455;SDS011;42354;53.218;6.564;2023-05-17T09:34:04;10.73;;;1.00;;
56455;SDS011;42354;53.218;6.564;2023-05-17T09:36:36;8.27;;;1.33;;
56455;SDS011;42354;53.218;6.564;2023-05-17T09:39:06;11.88;;;1.17;;
56455;SDS011;42354;53.218;6.564;2023-05-17T09:41:43;10.18;;;1.65;;
56455;SDS011;42354;53.218;6.564;2023-05-17T09:44:11;11.13;;;1.70;;
56455;SDS011;42354;53.218;6.564;2023-05-17T09:46:44;10.07;;;1.55;;
56455;SDS011;42354;53.218;6.564;2023-05-17T09:49:14;15.88;;;1.63;;
56455;SDS011;42354;53.218;6.564;2023-05-17T09:51:41;8.82;;;1.20;;
56455;SDS011;42354;53.218;6.564;2023-05-17T09:54:09;10.88;;;1.23;;
56455;SDS011;42354;53.218;6.564;2023-05-17T09:56:35;8.48;;;1.25;;
56455;SDS011;42354;53.218;6.564;2023-05-17T09:59:01;10.13;;;1.10;;
56455;SDS011;42354;53.218;6.564;2023-05-17T10:01:28;5.15;;;1.10;;
56455;SDS011;42354;53.218;6.564;2023-05-17T10:03:58;8.35;;;1.73;;
56455;SDS011;42354;53.218;6.564;2023-05-17T10:06:27;6.90;;;1.50;;
56455;SDS011;42354;53.218;6.564;2023-05-17T10:08:54;10.43;;;1.30;;
56455;SDS011;42354;53.218;6.564;2023-05-17T10:11:23;9.65;;;1.23;;
56455;SDS011;42354;53.218;6.564;2023-05-17T10:16:55;10.20;;;1.60;;
56455;SDS011;42354;53.218;6.564;2023-05-17T10:19:25;6.85;;;1.45;;
56455;SDS011;42354;53.218;6.564;2023-05-17T10:21:51;8.20;;;1.08;;
56455;SDS011;42354;53.218;6.564;2023-05-17T10:24:18;11.18;;;1.98;;
56455;SDS011;42354;53.218;6.564;2023-05-17T10:26:45;8.75;;;1.70;;
56455;SDS011;42354;53.218;6.564;2023-05-17T10:29:13;7.60;;;1.08;;
56455;SDS011;42354;53.218;6.564;2023-05-17T10:31:40;13.93;;;2.13;;
56455;SDS011;42354;53.218;6.564;2023-05-17T10:34:07;10.77;;;1.17;;
56455;SDS011;42354;53.218;6.564;2023-05-17T10:36:35;9.57;;;1.73;;
56455;SDS011;42354;53.218;6.564;2023-05-17T10:39:04;9.32;;;1.45;;
56455;SDS011;42354;53.218;6.564;2023-05-17T10:41:32;11.88;;;1.92;;
56455;SDS011;42354;53.218;6.564;2023-05-17T10:44:00;7.05;;;1.30;;
56455;SDS011;42354;53.218;6.564;2023-05-17T10:46:29;9.45;;;1.70;;
56455;SDS011;42354;53.218;6.564;2023-05-17T10:48:56;10.57;;;2.05;;
56455;SDS011;42354;53.218;6.564;2023-05-17T10:51:34;10.63;;;1.35;;
56455;SDS011;42354;53.218;6.564;2023-05-17T10:56:28;14.18;;;1.80;;
56455;SDS011;42354;53.218;6.564;2023-05-17T10:59:14;9.60;;;1.92;;
56455;SDS011;42354;53.218;6.564;2023-05-17T11:04:48;9.63;;;1.83;;
56455;SDS011;42354;53.218;6.564;2023-05-17T11:07:21;9.73;;;1.33;;
56455;SDS011;42354;53.218;6.564;2023-05-17T11:12:28;9.93;;;1.52;;
56455;SDS011;42354;53.218;6.564;2023-05-17T11:15:00;8.13;;;1.27;;
56455;SDS011;42354;53.218;6.564;2023-05-17T11:17:35;10.15;;;1.30;;
56455;SDS011;42354;53.218;6.564;2023-05-17T11:22:36;8.65;;;1.92;;
56455;SDS011;42354;53.218;6.564;2023-05-17T11:25:05;6.57;;;1.42;;
56455;SDS011;42354;53.218;6.564;2023-05-17T11:27:36;10.07;;;1.70;;
56455;SDS011;42354;53.218;6.564;2023-05-17T11:30:14;12.32;;;1.65;;
56455;SDS011;42354;53.218;6.564;2023-05-17T11:32:45;11.85;;;2.15;;
56455;SDS011;42354;53.218;6.564;2023-05-17T11:35:12;8.35;;;1.52;;
56455;SDS011;42354;53.218;6.564;2023-05-17T11:37:38;9.75;;;1.70;;
56455;SDS011;42354;53.218;6.564;2023-05-17T11:40:08;10.98;;;1.90;;
56455;SDS011;42354;53.218;6.564;2023-05-17T11:42:34;7.53;;;1.40;;
56455;SDS011;42354;53.218;6.564;2023-05-17T11:45:03;13.43;;;1.65;;
56455;SDS011;42354;53.218;6.564;2023-05-17T11:47:29;11.60;;;1.45;;
56455;SDS011;42354;53.218;6.564;2023-05-17T11:49:59;6.65;;;1.35;;
56455;SDS011;42354;53.218;6.564;2023-05-17T11:52:28;7.75;;;1.77;;
56455;SDS011;42354;53.218;6.564;2023-05-17T11:54:55;8.75;;;2.00;;
56455;SDS011;42354;53.218;6.564;2023-05-17T11:57:27;7.25;;;1.67;;
56455;SDS011;42354;53.218;6.564;2023-05-17T12:00:01;8.70;;;1.40;;
56455;SDS011;42354;53.218;6.564;2023-05-17T12:02:29;11.20;;;1.52;;
56455;SDS011;42354;53.218;6.564;2023-05-17T12:04:55;12.98;;;1.63;;
56455;SDS011;42354;53.218;6.564;2023-05-17T12:07:21;9.77;;;1.67;;
56455;SDS011;42354;53.218;6.564;2023-05-17T12:09:47;8.93;;;1.80;;
56455;SDS011;42354;53.218;6.564;2023-05-17T12:12:13;12.27;;;1.80;;
56455;SDS011;42354;53.218;6.564;2023-05-17T12:14:41;12.65;;;1.70;;
56455;SDS011;42354;53.218;6.564;2023-05-17T12:17:08;13.38;;;2.47;;
56455;SDS011;42354;53.218;6.564;2023-05-17T12:19:37;8.38;;;1.35;;
56455;SDS011;42354;53.218;6.564;2023-05-17T12:24:38;7.97;;;1.25;;
56455;SDS011;42354;53.218;6.564;2023-05-17T12:27:05;9.98;;;1.63;;
56455;SDS011;42354;53.218;6.564;2023-05-17T12:29:30;12.82;;;2.17;;
56455;SDS011;42354;53.218;6.564;2023-05-17T12:31:56;6.88;;;1.35;;
56455;SDS011;42354;53.218;6.564;2023-05-17T12:34:24;15.98;;;2.30;;
56455;SDS011;42354;53.218;6.564;2023-05-17T12:36:50;11.02;;;1.70;;
56455;SDS011;42354;53.218;6.564;2023-05-17T12:39:17;8.70;;;1.33;;
56455;SDS011;42354;53.218;6.564;2023-05-17T12:41:48;10.18;;;1.95;;
56455;SDS011;42354;53.218;6.564;2023-05-17T12:44:16;8.20;;;1.40;;
56455;SDS011;42354;53.218;6.564;2023-05-17T12:46:42;13.75;;;1.63;;
56455;SDS011;42354;53.218;6.564;2023-05-17T12:49:08;8.85;;;1.65;;
56455;SDS011;42354;53.218;6.564;2023-05-17T12:51:45;11.55;;;2.38;;
56455;SDS011;42354;53.218;6.564;2023-05-17T12:54:13;7.60;;;1.73;;
56455;SDS011;42354;53.218;6.564;2023-05-17T12:56:50;11.85;;;1.50;;
56455;SDS011;42354;53.218;6.564;2023-05-17T12:59:16;10.23;;;1.60;;
56455;SDS011;42354;53.218;6.564;2023-05-17T13:01:42;8.10;;;2.10;;
56455;SDS011;42354;53.218;6.564;2023-05-17T13:04:12;7.47;;;1.38;;
56455;SDS011;42354;53.218;6.564;2023-05-17T13:06:42;9.32;;;1.55;;
56455;SDS011;42354;53.218;6.564;2023-05-17T13:09:18;10.95;;;1.67;;
56455;SDS011;42354;53.218;6.564;2023-05-17T13:11:55;6.32;;;1.30;;
56455;SDS011;42354;53.218;6.564;2023-05-17T13:17:07;12.32;;;1.92;;
56455;SDS011;42354;53.218;6.564;2023-05-17T13:19:34;8.82;;;1.63;;
56455;SDS011;42354;53.218;6.564;2023-05-17T13:22:00;9.85;;;1.30;;
56455;SDS011;42354;53.218;6.564;2023-05-17T13:24:26;7.82;;;1.38;;
56455;SDS011;42354;53.218;6.564;2023-05-17T13:26:52;10.77;;;1.73;;
56455;SDS011;42354;53.218;6.564;2023-05-17T13:29:18;6.78;;;1.42;;
56455;SDS011;42354;53.218;6.564;2023-05-17T13:31:43;7.07;;;1.23;;
56455;SDS011;42354;53.218;6.564;2023-05-17T13:34:08;10.00;;;1.42;;
56455;SDS011;42354;53.218;6.564;2023-05-17T13:36:34;10.13;;;1.33;;
56455;SDS011;42354;53.218;6.564;2023-05-17T13:38:59;8.65;;;1.15;;
56455;SDS011;42354;53.218;6.564;2023-05-17T13:41:26;7.90;;;1.17;;
56455;SDS011;42354;53.218;6.564;2023-05-17T13:43:51;8.50;;;1.27;;
56455;SDS011;42354;53.218;6.564;2023-05-17T13:46:17;10.60;;;1.48;;
56455;SDS011;42354;53.218;6.564;2023-05-17T13:48:42;9.23;;;1.70;;
56455;SDS011;42354;53.218;6.564;2023-05-17T13:51:08;6.13;;;1.58;;
56455;SDS011;42354;53.218;6.564;2023-05-17T13:53:33;7.78;;;1.42;;
56455;SDS011;42354;53.218;6.564;2023-05-17T13:55:59;8.15;;;1.85;;
56455;SDS011;42354;53.218;6.564;2023-05-17T13:58:25;7.90;;;1.52;;
56455;SDS011;42354;53.218;6.564;2023-05-17T14:00:51;8.45;;;1.45;;
56455;SDS011;42354;53.218;6.564;2023-05-17T14:03:16;8.30;;;1.33;;
56455;SDS011;42354;53.218;6.564;2023-05-17T14:05:42;8.98;;;1.60;;
56455;SDS011;42354;53.218;6.564;2023-05-17T14:08:07;8.32;;;1.50;;
56455;SDS011;42354;53.218;6.564;2023-05-17T14:10:33;5.93;;;1.50;;
56455;SDS011;42354;53.218;6.564;2023-05-17T14:12:59;6.40;;;1.75;;
56455;SDS011;42354;53.218;6.564;2023-05-17T14:15:25;8.73;;;1.50;;
56455;SDS011;42354;53.218;6.564;2023-05-17T14:17:52;12.60;;;1.25;;
56455;SDS011;42354;53.218;6.564;2023-05-17T14:20:17;6.53;;;1.70;;
56455;SDS011;42354;53.218;6.564;2023-05-17T14:22:43;6.30;;;1.00;;
56455;SDS011;42354;53.218;6.564;2023-05-17T14:25:08;5.90;;;1.40;;
56455;SDS011;42354;53.218;6.564;2023-05-17T14:27:35;6.03;;;1.10;;
56455;SDS011;42354;53.218;6.564;2023-05-17T14:30:01;6.93;;;1.40;;
56455;SDS011;42354;53.218;6.564;2023-05-17T14:32:26;9.23;;;1.40;;
56455;SDS011;42354;53.218;6.564;2023-05-17T14:34:52;5.53;;;1.20;;
56455;SDS011;42354;53.218;6.564;2023-05-17T14:37:17;3.50;;;0.98;;
56455;SDS011;42354;53.218;6.564;2023-05-17T14:39:45;6.70;;;1.40;;
56455;SDS011;42354;53.218;6.564;2023-05-17T14:42:10;7.15;;;1.20;;
56455;SDS011;42354;53.218;6.564;2023-05-17T14:44:35;5.00;;;1.20;;
56455;SDS011;42354;53.218;6.564;2023-05-17T14:47:03;5.47;;;1.10;;
56455;SDS011;42354;53.218;6.564;2023-05-17T14:49:32;7.32;;;1.30;;
56455;SDS011;42354;53.218;6.564;2023-05-17T14:51:57;8.05;;;1.23;;
56455;SDS011;42354;53.218;6.564;2023-05-17T14:54:23;5.88;;;1.15;;
56455;SDS011;42354;53.218;6.564;2023-05-17T14:56:50;7.05;;;1.52;;
56455;SDS011;42354;53.218;6.564;2023-05-17T14:59:15;6.82;;;1.30;;
56455;SDS011;42354;53.218;6.564;2023-05-17T15:01:41;9.68;;;1.65;;
56455;SDS011;42354;53.218;6.564;2023-05-17T15:04:08;9.52;;;1.35;;
56455;SDS011;42354;53.218;6.564;2023-05-17T15:06:34;4.82;;;0.90;;
56455;SDS011;42354;53.218;6.564;2023-05-17T15:09:00;9.68;;;1.40;;
56455;SDS011;42354;53.218;6.564;2023-05-17T15:11:27;9.02;;;1.73;;
56455;SDS011;42354;53.218;6.564;2023-05-17T15:13:53;9.05;;;1.20;;
56455;SDS011;42354;53.218;6.564;2023-05-17T15:16:18;6.80;;;1.30;;